createdAt,value
2023-03-02T00:01:09.491Z,101081.77
2023-03-02T00:06:12.394Z,101083.01
2023-03-02T00:11:15.744Z,101082.86
2023-03-02T00:16:26.821Z,101078.71
2023-03-02T00:21:29.526Z,101068.59
2023-03-02T00:26:36.545Z,101067.15
2023-03-02T00:31:39.539Z,101059.70
2023-03-02T00:36:43.323Z,101055.35
2023-03-02T00:41:47.178Z,101056.00
2023-03-02T00:46:50.015Z,101053.95
2023-03-02T00:51:52.817Z,101052.95
2023-03-02T00:56:55.823Z,101046.14
2023-03-02T01:02:00.670Z,101043.09
2023-03-02T01:07:06.906Z,101038.80
2023-03-02T01:12:11.491Z,101032.66
2023-03-02T01:17:15.653Z,101035.28
2023-03-02T01:22:19.421Z,101037.56
2023-03-02T01:27:22.617Z,101039.65
2023-03-02T01:32:25.410Z,101040.98
2023-03-02T01:37:28.407Z,101032.34
2023-03-02T01:42:37.772Z,101028.67
2023-03-02T01:47:40.531Z,101022.65
2023-03-02T01:52:44.007Z,101014.29
2023-03-02T01:57:49.973Z,101008.53
2023-03-02T02:02:54.510Z,101003.30
2023-03-02T02:07:57.742Z,101000.00
2023-03-02T02:13:00.443Z,100997.39
2023-03-02T02:18:03.232Z,100996.34
2023-03-02T02:23:27.664Z,100998.73
2023-03-02T02:28:58.046Z,101001.09
2023-03-02T02:34:23.043Z,101001.50
2023-03-02T02:39:30.629Z,101001.05
2023-03-02T02:44:34.013Z,101001.46
2023-03-02T02:49:41.761Z,100999.81
2023-03-02T02:54:51.739Z,100992.52
2023-03-02T02:59:56.071Z,100989.45
2023-03-02T03:05:04.642Z,100987.91
2023-03-02T03:10:17.023Z,100993.38
2023-03-02T03:15:20.626Z,101005.38
2023-03-02T03:20:26.111Z,101004.70
2023-03-02T03:25:29.233Z,101001.48
2023-03-02T03:30:32.128Z,100998.11
2023-03-02T03:35:37.234Z,100996.41
2023-03-02T03:40:40.404Z,101002.95
2023-03-02T03:45:43.371Z,100994.89
2023-03-02T03:50:46.695Z,100995.92
2023-03-02T03:55:50.831Z,100998.80
2023-03-02T04:00:54.292Z,100996.55
2023-03-02T04:05:57.145Z,100992.73
2023-03-02T04:10:59.797Z,100993.23
2023-03-02T04:16:02.791Z,100999.40
2023-03-02T04:21:05.856Z,100998.90
2023-03-02T04:26:08.664Z,101002.20
2023-03-02T04:31:11.499Z,101002.73
2023-03-02T04:36:14.677Z,100996.04
2023-03-02T04:41:17.902Z,100994.46
2023-03-02T04:46:24.250Z,100994.77
2023-03-02T04:51:30.688Z,100996.61
2023-03-02T04:56:34.407Z,100998.61
2023-03-02T05:01:37.397Z,100996.70
2023-03-02T05:06:40.413Z,100996.02
2023-03-02T05:11:43.119Z,100990.57
2023-03-02T05:16:45.908Z,100989.21
2023-03-02T05:21:49.730Z,100997.13
2023-03-02T05:26:52.534Z,101000.74
2023-03-02T05:31:55.572Z,100993.38
2023-03-02T05:36:58.953Z,100997.31
2023-03-02T05:42:01.757Z,101003.43
2023-03-02T05:47:04.712Z,101006.32
2023-03-02T05:52:07.571Z,101008.70
2023-03-02T05:57:10.459Z,101004.60
2023-03-02T06:02:13.747Z,101008.19
2023-03-02T06:07:16.677Z,101010.56
2023-03-02T06:12:19.402Z,101014.51
2023-03-02T06:17:22.816Z,101017.64
2023-03-02T06:22:25.698Z,101015.21
2023-03-02T06:27:28.388Z,101018.73
2023-03-02T06:32:34.280Z,101014.36
2023-03-02T06:37:37.482Z,101008.59
2023-03-02T06:42:41.886Z,101006.77
2023-03-02T06:47:44.726Z,101004.30
2023-03-02T06:52:47.503Z,101000.41
2023-03-02T06:57:51.662Z,101000.11
2023-03-02T07:02:56.350Z,101000.75
2023-03-02T07:07:59.709Z,100999.27
2023-03-02T07:13:02.555Z,101000.16
2023-03-02T07:18:05.626Z,100999.23
2023-03-02T07:23:08.435Z,101002.77
2023-03-02T07:28:11.240Z,101001.05
2023-03-02T07:33:13.992Z,101001.15
2023-03-02T07:38:16.840Z,101001.58
2023-03-02T07:43:20.322Z,101002.30
2023-03-02T07:48:23.572Z,101010.55
2023-03-02T07:53:27.190Z,101011.52
2023-03-02T07:58:30.171Z,101010.30
2023-03-02T08:03:32.994Z,101014.64
2023-03-02T08:08:36.771Z,101020.08
2023-03-02T08:13:40.523Z,101021.00
2023-03-02T08:18:44.028Z,101020.29
2023-03-02T08:23:47.690Z,101018.76
2023-03-02T08:28:50.495Z,101024.29
2023-03-02T08:33:53.696Z,101023.52
2023-03-02T08:38:56.503Z,101029.26
2023-03-02T08:43:59.423Z,101027.13
2023-03-02T08:49:02.304Z,101020.92
2023-03-02T08:54:05.133Z,101017.18
2023-03-02T08:59:12.511Z,101015.59
2023-03-02T09:04:15.746Z,101020.48
2023-03-02T09:09:18.433Z,101015.86
2023-03-02T09:14:21.214Z,101010.52
2023-03-02T09:19:23.918Z,101008.89
2023-03-02T09:24:26.723Z,101000.88
2023-03-02T09:29:29.726Z,100995.53
2023-03-02T09:34:32.547Z,100993.27
2023-03-02T09:39:36.867Z,100999.21
2023-03-02T09:44:57.864Z,100998.21
2023-03-02T09:50:36.119Z,100999.68
2023-03-02T09:55:39.325Z,100996.31
2023-03-02T10:00:44.092Z,100990.00
2023-03-02T10:05:54.262Z,100990.24
2023-03-02T10:11:13.464Z,100987.25
2023-03-02T10:16:28.061Z,100981.53
2023-03-02T10:21:47.618Z,100980.35
2023-03-02T10:26:57.553Z,100973.39
2023-03-02T10:32:16.986Z,100973.69
2023-03-02T10:37:30.585Z,100966.95
2023-03-02T10:42:40.521Z,100967.95
2023-03-02T10:47:43.418Z,100960.77
2023-03-02T10:52:59.740Z,100960.17
2023-03-02T10:58:26.263Z,100950.77
2023-03-02T11:03:30.212Z,100944.46
2023-03-02T11:08:33.137Z,100942.17
2023-03-02T11:13:38.688Z,100937.45
2023-03-02T11:19:05.644Z,100931.63
2023-03-02T11:24:20.836Z,100925.53
2023-03-02T11:29:36.351Z,100919.14
2023-03-02T11:34:51.538Z,100916.39
2023-03-02T11:40:04.162Z,100906.96
2023-03-02T11:45:30.424Z,100901.86
2023-03-02T11:50:37.402Z,100897.59
2023-03-02T11:55:48.591Z,100896.99
2023-03-02T12:00:53.824Z,100894.01
2023-03-02T12:06:16.748Z,100886.23
2023-03-02T12:11:19.454Z,100883.02
2023-03-02T12:16:35.000Z,100879.16
2023-03-02T12:21:43.670Z,100875.59
2023-03-02T12:26:46.503Z,100867.22
2023-03-02T12:31:55.975Z,100862.23
2023-03-02T12:37:04.614Z,100853.77
2023-03-02T12:42:45.085Z,100844.44
2023-03-02T12:47:51.716Z,100838.05
2023-03-02T12:53:01.430Z,100837.85
2023-03-02T12:58:04.182Z,100831.20
2023-03-02T13:03:09.928Z,100819.44
2023-03-02T13:08:25.609Z,100818.04
2023-03-02T13:13:39.128Z,100816.78
2023-03-02T13:18:42.062Z,100809.27
2023-03-02T13:23:50.385Z,100799.19
2023-03-02T13:29:20.784Z,100790.36
2023-03-02T13:34:27.250Z,100780.80
2023-03-02T13:39:32.109Z,100777.01
2023-03-02T13:44:35.581Z,100769.83
2023-03-02T13:49:39.347Z,100766.60
2023-03-02T13:54:45.392Z,100755.96
2023-03-02T13:59:48.735Z,100741.67
2023-03-02T14:04:52.381Z,100739.81
2023-03-02T14:09:57.300Z,100734.67
2023-03-02T14:15:03.617Z,100728.10
2023-03-02T14:20:07.324Z,100720.05
2023-03-02T14:25:10.690Z,100719.11
2023-03-02T14:30:21.546Z,100714.91
2023-03-02T14:35:25.589Z,100708.72
2023-03-02T14:40:28.867Z,100706.42
2023-03-02T14:45:31.683Z,100701.41
2023-03-02T14:50:42.028Z,100696.52
2023-03-02T14:55:45.340Z,100690.48
2023-03-02T15:00:48.693Z,100689.23
2023-03-02T15:06:01.278Z,100679.98
2023-03-02T15:11:04.809Z,100680.83
2023-03-02T15:16:12.329Z,100675.55
2023-03-02T15:21:18.707Z,100666.23
2023-03-02T15:26:21.449Z,100668.30
2023-03-02T15:31:24.259Z,100662.67
2023-03-02T15:36:27.119Z,100652.38
2023-03-02T15:41:29.912Z,100648.33
2023-03-02T15:46:32.724Z,100647.56
2023-03-02T15:51:35.616Z,100642.67
2023-03-02T15:56:44.226Z,100647.20
2023-03-02T16:01:47.564Z,100647.63
2023-03-02T16:06:50.480Z,100642.50
2023-03-02T16:11:53.241Z,100638.66
2023-03-02T16:16:56.015Z,100632.54
2023-03-02T16:21:59.100Z,100633.84
2023-03-02T16:27:02.102Z,100634.51
2023-03-02T16:32:06.568Z,100636.56
2023-03-02T16:37:09.350Z,100640.70
2023-03-02T16:42:12.540Z,100641.53
2023-03-02T16:47:15.451Z,100641.09
2023-03-02T16:52:18.580Z,100639.39
2023-03-02T16:57:21.383Z,100636.41
2023-03-02T17:02:24.078Z,100636.11
2023-03-02T17:07:26.970Z,100640.90
2023-03-02T17:12:29.745Z,100642.05
2023-03-02T17:17:32.467Z,100643.48
2023-03-02T17:22:35.278Z,100648.14
2023-03-02T17:27:38.680Z,100648.08
2023-03-02T17:32:41.891Z,100644.21
2023-03-02T17:37:44.647Z,100639.60
2023-03-02T17:42:48.537Z,100633.05
2023-03-02T17:47:53.143Z,100628.02
2023-03-02T17:52:56.369Z,100628.69
2023-03-02T17:57:59.176Z,100624.91
2023-03-02T18:03:02.120Z,100623.48
2023-03-02T18:08:05.209Z,100618.46
2023-03-02T18:13:07.983Z,100617.55
2023-03-02T18:18:12.635Z,100620.41
2023-03-02T18:23:15.646Z,100619.20
2023-03-02T18:28:18.833Z,100619.88
2023-03-02T18:33:21.651Z,100615.70
2023-03-02T18:38:31.088Z,100611.34
2023-03-02T18:43:37.293Z,100610.19
2023-03-02T18:48:40.198Z,100609.33
2023-03-02T18:53:43.212Z,100612.08
2023-03-02T18:58:46.620Z,100614.02
2023-03-02T19:03:50.237Z,100619.79
2023-03-02T19:08:53.448Z,100621.23
2023-03-02T19:13:56.162Z,100621.63
2023-03-02T19:18:58.981Z,100613.07
2023-03-02T19:24:01.964Z,100612.33
2023-03-02T19:29:04.967Z,100611.14
2023-03-02T19:34:07.878Z,100610.98
2023-03-02T19:39:10.585Z,100606.09
2023-03-02T19:44:13.369Z,100592.99
2023-03-02T19:49:17.096Z,100593.80
2023-03-02T19:54:19.829Z,100596.23
2023-03-02T19:59:24.267Z,100596.05
2023-03-02T20:04:27.915Z,100600.24
2023-03-02T20:09:30.859Z,100596.81
2023-03-02T20:14:36.047Z,100592.08
2023-03-02T20:19:38.884Z,100590.98
2023-03-02T20:24:42.892Z,100588.90
2023-03-02T20:29:46.062Z,100579.79
2023-03-02T20:34:48.868Z,100572.36
2023-03-02T20:39:53.195Z,100576.02
2023-03-02T20:44:56.514Z,100573.16
2023-03-02T20:50:00.849Z,100568.77
2023-03-02T20:55:05.603Z,100563.02
2023-03-02T21:00:15.976Z,100561.20
2023-03-02T21:05:20.728Z,100560.55
2023-03-02T21:10:29.262Z,100554.62
2023-03-02T21:15:32.319Z,100554.36
2023-03-02T21:20:36.025Z,100552.58
2023-03-02T21:25:41.155Z,100551.30
2023-03-02T21:30:45.277Z,100552.23
2023-03-02T21:35:48.000Z,100542.58
2023-03-02T21:40:50.787Z,100532.04
2023-03-02T21:45:53.503Z,100523.04
2023-03-02T21:50:56.894Z,100522.40
2023-03-02T21:56:01.950Z,100528.23
2023-03-02T22:01:04.954Z,100538.81
2023-03-02T22:06:07.755Z,100536.95
2023-03-02T22:11:18.445Z,100527.70
2023-03-02T22:16:27.053Z,100527.52
2023-03-02T22:21:42.994Z,100515.76
2023-03-02T22:26:49.603Z,100514.24
2023-03-02T22:31:55.457Z,100510.02
2023-03-02T22:37:20.658Z,100500.98
2023-03-02T22:42:25.844Z,100496.55
2023-03-02T22:47:28.660Z,100491.08
2023-03-02T22:52:39.309Z,100489.34
2023-03-02T22:57:42.908Z,100480.97
2023-03-02T23:02:46.076Z,100471.56
2023-03-02T23:07:48.867Z,100479.05
2023-03-02T23:12:51.569Z,100470.83
2023-03-02T23:17:57.555Z,100471.83
2023-03-02T23:23:00.260Z,100459.84
2023-03-02T23:28:03.047Z,100443.25
2023-03-02T23:33:05.948Z,100436.91
2023-03-02T23:38:08.758Z,100437.11
2023-03-02T23:43:11.513Z,100427.36
2023-03-02T23:48:14.461Z,100420.37
2023-03-02T23:53:17.534Z,100409.43
2023-03-02T23:58:20.706Z,100401.76
